Time;durP1;ratioP1;P1;durP2;ratioP2;P2;SDS_P1;SDS_P2;PMS_P1;PMS_P2;Temp;Humidity;BMP_temperature;BMP_pressure;BME280_temperature;BME280_humidity;BME280_pressure;Samples;Min_cycle;Max_cycle;Signal;HPM_P1;HPM_P2
2022/07/24 00:00:20;;;;;;;11.40;10.50;;;;;;;;;;5052956;28;20418;-66
2022/07/24 00:02:45;;;;;;;12.63;11.63;;;;;;;;;;5053019;28;20461;-64
2022/07/24 00:05:11;;;;;;;14.13;11.07;;;;;;;;;;5052442;28;20909;-64
2022/07/24 00:07:37;;;;;;;13.03;11.90;;;;;;;;;;5052901;28;20463;-65
2022/07/24 00:10:04;;;;;;;11.93;10.83;;;;;;;;;;5054146;28;20969;-65
2022/07/24 00:12:30;;;;;;;11.20;10.27;;;;;;;;;;5055621;28;20419;-66
2022/07/24 00:14:56;;;;;;;11.20;10.40;;;;;;;;;;5055400;28;20462;-69
2022/07/24 00:17:22;;;;;;;11.60;10.60;;;;;;;;;;5055489;28;20479;-69
2022/07/24 00:19:48;;;;;;;11.67;10.57;;;;;;;;;;5055462;28;20398;-69
2022/07/24 00:22:15;;;;;;;12.10;11.13;;;;;;;;;;5055397;28;20402;-69
2022/07/24 00:24:41;;;;;;;11.80;10.80;;;;;;;;;;5055370;28;20391;-69
2022/07/24 00:27:07;;;;;;;11.87;10.80;;;;;;;;;;5055354;28;20394;-68
2022/07/24 00:29:33;;;;;;;13.83;11.30;;;;;;;;;;5055377;28;20394;-67
2022/07/24 00:31:59;;;;;;;13.20;11.13;;;;;;;;;;5053969;28;20430;-68
2022/07/24 00:34:24;;;;;;;12.13;10.87;;;;;;;;;;5055209;28;20410;-66
2022/07/24 00:36:50;;;;;;;13.67;12.53;;;;;;;;;;5053763;28;20478;-66
2022/07/24 00:39:16;;;;;;;13.57;12.37;;;;;;;;;;5055028;28;20410;-67
2022/07/24 00:41:42;;;;;;;13.37;12.30;;;;;;;;;;5055039;28;20438;-68
2022/07/24 00:44:10;;;;;;;14.10;11.33;;;;;;;;;;5055047;28;20434;-67
2022/07/24 00:46:37;;;;;;;12.70;11.60;;;;;;;;;;5055039;28;20410;-67
2022/07/24 00:49:07;;;;;;;11.20;10.33;;;;;;;;;;5054926;28;20398;-67
2022/07/24 00:51:34;;;;;;;12.47;11.57;;;;;;;;;;5054857;28;20409;-67
2022/07/24 00:54:03;;;;;;;11.90;10.90;;;;;;;;;;5055018;28;20421;-67
2022/07/24 00:56:29;;;;;;;14.70;11.93;;;;;;;;;;5054648;28;20499;-68
2022/07/24 00:58:55;;;;;;;13.00;11.90;;;;;;;;;;5054796;28;20410;-68
2022/07/24 01:01:21;;;;;;;12.33;11.13;;;;;;;;;;5054723;28;20410;-68
2022/07/24 01:03:47;;;;;;;12.53;11.63;;;;;;;;;;5054591;28;20407;-67
2022/07/24 01:06:14;;;;;;;13.53;12.30;;;;;;;;;;5053274;28;20468;-66
2022/07/24 01:08:42;;;;;;;12.83;11.93;;;;;;;;;;5054556;28;20452;-67
2022/07/24 01:11:09;;;;;;;12.10;11.03;;;;;;;;;;5054495;28;20409;-66
2022/07/24 01:13:36;;;;;;;12.17;11.27;;;;;;;;;;5054486;28;20402;-67
2022/07/24 01:16:02;;;;;;;12.93;11.70;;;;;;;;;;5053355;28;20520;-66
2022/07/24 01:18:28;;;;;;;11.80;10.87;;;;;;;;;;5053263;28;20417;-67
2022/07/24 01:20:55;;;;;;;11.33;10.53;;;;;;;;;;5054234;28;20805;-66
2022/07/24 01:23:21;;;;;;;12.27;11.27;;;;;;;;;;5054260;28;20447;-66
2022/07/24 01:25:47;;;;;;;10.93;10.20;;;;;;;;;;5054456;28;20407;-66
2022/07/24 01:28:13;;;;;;;12.40;11.20;;;;;;;;;;5052881;28;20791;-65
2022/07/24 01:30:39;;;;;;;13.57;12.17;;;;;;;;;;5052853;28;20846;-67
2022/07/24 01:33:05;;;;;;;12.67;11.60;;;;;;;;;;5054142;28;20814;-68
2022/07/24 01:35:31;;;;;;;13.23;12.23;;;;;;;;;;5054055;28;20428;-68
2022/07/24 01:37:58;;;;;;;13.87;12.77;;;;;;;;;;5054003;28;20887;-67
2022/07/24 01:40:24;;;;;;;13.20;12.20;;;;;;;;;;5053955;28;20445;-68
2022/07/24 01:42:50;;;;;;;12.53;11.60;;;;;;;;;;5054044;28;20424;-67
2022/07/24 01:45:16;;;;;;;13.13;11.97;;;;;;;;;;5053885;28;20872;-68
2022/07/24 01:47:43;;;;;;;13.90;12.40;;;;;;;;;;5053915;28;20906;-68
2022/07/24 01:50:09;;;;;;;19.10;12.23;;;;;;;;;;5054112;28;20565;-67
2022/07/24 01:52:35;;;;;;;12.17;11.17;;;;;;;;;;5053669;28;20788;-68
2022/07/24 01:55:01;;;;;;;12.43;11.27;;;;;;;;;;5053848;28;20416;-67
2022/07/24 01:57:27;;;;;;;11.30;10.50;;;;;;;;;;5053552;28;20476;-68
2022/07/24 01:59:53;;;;;;;13.10;12.10;;;;;;;;;;5053710;28;20416;-68
2022/07/24 02:02:19;;;;;;;12.30;11.40;;;;;;;;;;5053596;28;20772;-68
2022/07/24 02:04:45;;;;;;;13.43;12.23;;;;;;;;;;5053615;28;20540;-68
2022/07/24 02:07:11;;;;;;;12.10;11.23;;;;;;;;;;5053502;28;20460;-68
2022/07/24 02:09:37;;;;;;;12.43;11.40;;;;;;;;;;5053469;28;20475;-68
2022/07/24 02:12:03;;;;;;;13.37;12.17;;;;;;;;;;5053454;28;20515;-68
2022/07/24 02:14:29;;;;;;;13.77;12.40;;;;;;;;;;5053305;28;20400;-66
2022/07/24 02:16:55;;;;;;;13.07;11.93;;;;;;;;;;5053340;28;20529;-68
2022/07/24 02:19:23;;;;;;;12.23;11.23;;;;;;;;;;5053554;28;20405;-67
2022/07/24 02:21:49;;;;;;;13.17;12.10;;;;;;;;;;5053454;28;20448;-68
2022/07/24 02:24:15;;;;;;;13.10;11.80;;;;;;;;;;5053340;28;20434;-67
2022/07/24 02:26:40;;;;;;;11.60;10.80;;;;;;;;;;5053387;28;20876;-67
2022/07/24 02:29:06;;;;;;;12.40;11.30;;;;;;;;;;5053044;28;20456;-67
2022/07/24 02:31:32;;;;;;;12.60;11.63;;;;;;;;;;5051996;28;20431;-68
2022/07/24 02:33:58;;;;;;;13.47;12.37;;;;;;;;;;5053348;28;20435;-68
2022/07/24 02:36:24;;;;;;;12.27;11.47;;;;;;;;;;5051963;28;20477;-68
2022/07/24 02:38:51;;;;;;;13.10;12.20;;;;;;;;;;5053247;28;20415;-67
2022/07/24 02:41:17;;;;;;;12.10;11.07;;;;;;;;;;5053308;28;20963;-67
2022/07/24 02:43:43;;;;;;;12.73;11.83;;;;;;;;;;5053238;28;20407;-66
2022/07/24 02:46:09;;;;;;;12.43;11.43;;;;;;;;;;5053208;28;20434;-68
2022/07/24 02:48:35;;;;;;;11.90;11.03;;;;;;;;;;5053122;28;20397;-68
2022/07/24 02:51:01;;;;;;;13.53;12.20;;;;;;;;;;5053196;28;20803;-68
2022/07/24 02:53:27;;;;;;;13.00;11.83;;;;;;;;;;5053112;28;20419;-68
2022/07/24 02:55:52;;;;;;;12.57;11.67;;;;;;;;;;5053085;28;20458;-68
2022/07/24 02:58:19;;;;;;;15.37;12.30;;;;;;;;;;5053141;28;20418;-67
2022/07/24 03:00:45;;;;;;;14.67;13.27;;;;;;;;;;5053050;28;20763;-68
2022/07/24 03:03:11;;;;;;;12.27;11.33;;;;;;;;;;5053023;28;20407;-68
2022/07/24 03:05:37;;;;;;;13.73;12.57;;;;;;;;;;5053042;28;20434;-66
2022/07/24 03:08:03;;;;;;;13.10;12.10;;;;;;;;;;5052974;28;20415;-68
2022/07/24 03:10:29;;;;;;;13.60;12.47;;;;;;;;;;5052947;28;20394;-68
2022/07/24 03:12:55;;;;;;;13.03;11.83;;;;;;;;;;5052994;28;20418;-67
2022/07/24 03:15:21;;;;;;;13.97;12.87;;;;;;;;;;5052858;28;20455;-68
2022/07/24 03:17:51;;;;;;;13.27;11.87;;;;;;;;;;5052848;28;20477;-68
2022/07/24 03:20:17;;;;;;;13.20;12.00;;;;;;;;;;5052986;28;20472;-68
2022/07/24 03:22:43;;;;;;;14.10;12.70;;;;;;;;;;5052871;28;20953;-68
2022/07/24 03:25:09;;;;;;;13.63;12.43;;;;;;;;;;5051543;28;20423;-69
2022/07/24 03:27:35;;;;;;;14.27;12.97;;;;;;;;;;5052894;28;20422;-69
2022/07/24 03:30:01;;;;;;;14.30;12.90;;;;;;;;;;5051510;28;20771;-68
2022/07/24 03:32:27;;;;;;;14.70;13.00;;;;;;;;;;5052822;28;20407;-67
2022/07/24 03:34:53;;;;;;;13.90;12.80;;;;;;;;;;5052707;28;20820;-68
2022/07/24 03:37:19;;;;;;;13.07;11.97;;;;;;;;;;5052586;28;20467;-68
2022/07/24 03:39:45;;;;;;;13.70;12.60;;;;;;;;;;5052546;28;20929;-67
2022/07/24 03:42:11;;;;;;;12.93;12.03;;;;;;;;;;5056311;28;20446;-67
2022/07/24 03:44:37;;;;;;;13.43;12.37;;;;;;;;;;5056206;28;20769;-67
2022/07/24 03:47:03;;;;;;;14.20;12.73;;;;;;;;;;5056112;28;20421;-67
2022/07/24 03:49:29;;;;;;;13.27;11.97;;;;;;;;;;5056088;28;20442;-66
2022/07/24 03:51:55;;;;;;;13.73;12.50;;;;;;;;;;5056103;28;20451;-65
2022/07/24 03:54:21;;;;;;;14.00;12.87;;;;;;;;;;5055904;28;20417;-66
2022/07/24 03:56:47;;;;;;;13.23;12.13;;;;;;;;;;5055869;28;20469;-67
2022/07/24 03:59:13;;;;;;;13.70;12.80;;;;;;;;;;5055820;28;20460;-68
2022/07/24 04:01:39;;;;;;;13.60;12.40;;;;;;;;;;5055811;28;20406;-66
2022/07/24 04:04:05;;;;;;;13.03;11.70;;;;;;;;;;5054515;28;20433;-68
2022/07/24 04:06:32;;;;;;;13.77;12.47;;;;;;;;;;5054465;28;20801;-66
2022/07/24 04:08:58;;;;;;;14.17;12.77;;;;;;;;;;5055677;28;20415;-66
2022/07/24 04:11:24;;;;;;;14.73;13.17;;;;;;;;;;5055718;28;20902;-66
2022/07/24 04:13:50;;;;;;;12.60;11.67;;;;;;;;;;5055707;28;20424;-65
2022/07/24 04:16:16;;;;;;;14.73;13.33;;;;;;;;;;5055437;28;20571;-67
2022/07/24 04:18:42;;;;;;;15.93;13.60;;;;;;;;;;5055508;28;20408;-66
2022/07/24 04:21:08;;;;;;;13.90;12.67;;;;;;;;;;5055555;28;20446;-66
2022/07/24 04:23:34;;;;;;;14.87;13.57;;;;;;;;;;5055426;28;20430;-66
2022/07/24 04:26:00;;;;;;;13.73;12.50;;;;;;;;;;5055365;28;20869;-67
2022/07/24 04:28:26;;;;;;;13.53;12.53;;;;;;;;;;5055430;28;20410;-66
2022/07/24 04:30:52;;;;;;;13.57;12.37;;;;;;;;;;5055259;28;20416;-66
2022/07/24 04:33:18;;;;;;;13.37;12.23;;;;;;;;;;5055307;28;20418;-65
2022/07/24 04:35:44;;;;;;;13.27;12.27;;;;;;;;;;5055163;28;20429;-66
2022/07/24 04:38:10;;;;;;;13.03;12.10;;;;;;;;;;5055110;28;20818;-66
2022/07/24 04:40:36;;;;;;;12.57;11.60;;;;;;;;;;5055123;28;20404;-66
2022/07/24 04:43:02;;;;;;;13.77;12.10;;;;;;;;;;5055184;28;20885;-67
2022/07/24 04:45:28;;;;;;;13.77;12.67;;;;;;;;;;5055079;28;20403;-67
2022/07/24 04:47:54;;;;;;;14.20;12.77;;;;;;;;;;5055056;28;20940;-67
2022/07/24 04:50:20;;;;;;;14.93;13.53;;;;;;;;;;5054821;28;20464;-65
2022/07/24 04:52:46;;;;;;;17.17;13.00;;;;;;;;;;5054942;28;20422;-66
2022/07/24 04:55:12;;;;;;;13.47;12.37;;;;;;;;;;5054862;28;20561;-67
2022/07/24 04:57:38;;;;;;;13.50;12.50;;;;;;;;;;5054629;28;20481;-67
2022/07/24 05:00:05;;;;;;;13.60;12.50;;;;;;;;;;5054778;28;20403;-68
2022/07/24 05:02:31;;;;;;;22.07;13.77;;;;;;;;;;5054587;28;20503;-67
2022/07/24 05:04:57;;;;;;;13.37;12.00;;;;;;;;;;5054644;28;20452;-67
2022/07/24 05:07:23;;;;;;;11.87;10.97;;;;;;;;;;5054436;28;20415;-67
2022/07/24 05:09:49;;;;;;;12.60;11.60;;;;;;;;;;5053218;28;20426;-68
2022/07/24 05:12:15;;;;;;;13.20;12.17;;;;;;;;;;5054458;28;20493;-67
2022/07/24 05:14:41;;;;;;;13.20;12.07;;;;;;;;;;5054284;28;20447;-67
2022/07/24 05:17:07;;;;;;;13.40;12.13;;;;;;;;;;5054457;28;20479;-68
2022/07/24 05:19:33;;;;;;;11.53;10.53;;;;;;;;;;5054653;28;20411;-67
2022/07/24 05:21:59;;;;;;;13.67;12.57;;;;;;;;;;5054360;28;20413;-68
2022/07/24 05:24:25;;;;;;;11.83;10.70;;;;;;;;;;5054278;28;20424;-68
2022/07/24 05:26:51;;;;;;;12.77;11.77;;;;;;;;;;5054362;28;20465;-67
2022/07/24 05:29:17;;;;;;;13.27;12.20;;;;;;;;;;5054213;28;20407;-67
2022/07/24 05:31:43;;;;;;;13.27;12.37;;;;;;;;;;5054160;28;20864;-67
2022/07/24 05:34:09;;;;;;;13.17;12.03;;;;;;;;;;5054104;28;20395;-67
2022/07/24 05:36:35;;;;;;;13.30;12.20;;;;;;;;;;5054042;28;20474;-67
2022/07/24 05:39:01;;;;;;;12.20;11.33;;;;;;;;;;5052650;28;20441;-68
2022/07/24 05:41:27;;;;;;;13.13;11.90;;;;;;;;;;5052652;28;20433;-67
2022/07/24 05:43:53;;;;;;;10.47;9.77;;;;;;;;;;5053884;28;20503;-67
2022/07/24 05:46:19;;;;;;;11.57;10.77;;;;;;;;;;5053812;28;20767;-67
2022/07/24 05:48:45;;;;;;;11.23;10.53;;;;;;;;;;5053749;28;20412;-68
2022/07/24 05:51:12;;;;;;;10.77;9.87;;;;;;;;;;5053704;28;20763;-66
2022/07/24 05:53:38;;;;;;;12.30;11.10;;;;;;;;;;5053677;28;20830;-67
2022/07/24 05:56:04;;;;;;;15.43;10.03;;;;;;;;;;5053592;28;20464;-67
2022/07/24 05:58:30;;;;;;;13.67;12.37;;;;;;;;;;5053670;28;20461;-67
2022/07/24 06:00:56;;;;;;;12.00;11.10;;;;;;;;;;5053650;28;20442;-68
2022/07/24 06:03:22;;;;;;;12.70;10.23;;;;;;;;;;5053179;28;20420;-67
2022/07/24 06:05:48;;;;;;;10.80;9.90;;;;;;;;;;5053589;28;20406;-68
2022/07/24 06:08:14;;;;;;;11.17;10.23;;;;;;;;;;5053469;28;20500;-68
2022/07/24 06:10:40;;;;;;;10.67;9.97;;;;;;;;;;5053534;28;20440;-68
2022/07/24 06:13:06;;;;;;;10.40;9.63;;;;;;;;;;5053413;28;20421;-70
2022/07/24 06:15:32;;;;;;;11.70;10.70;;;;;;;;;;5051843;28;21091;-66
2022/07/24 06:17:58;;;;;;;11.67;10.60;;;;;;;;;;5053414;28;20426;-69
2022/07/24 06:20:24;;;;;;;10.47;9.60;;;;;;;;;;5053439;28;20464;-67
2022/07/24 06:22:51;;;;;;;10.07;9.13;;;;;;;;;;5053320;28;20866;-69
2022/07/24 06:25:18;;;;;;;12.90;10.10;;;;;;;;;;5051951;28;20441;-69
2022/07/24 06:27:45;;;;;;;10.93;9.83;;;;;;;;;;5053282;28;20502;-69
2022/07/24 06:30:15;;;;;;;11.23;10.30;;;;;;;;;;5053224;28;20427;-67
2022/07/24 06:32:41;;;;;;;11.37;10.37;;;;;;;;;;5053330;28;20416;-67
2022/07/24 06:35:07;;;;;;;10.27;9.67;;;;;;;;;;5053416;28;20417;-69
2022/07/24 06:37:33;;;;;;;9.13;8.67;;;;;;;;;;5052993;28;20570;-69
2022/07/24 06:39:59;;;;;;;12.73;9.50;;;;;;;;;;5051899;28;20456;-68
2022/07/24 06:42:25;;;;;;;10.27;8.90;;;;;;;;;;5051960;28;20432;-68
2022/07/24 06:44:51;;;;;;;10.57;9.80;;;;;;;;;;5053199;28;20954;-68
2022/07/24 06:47:17;;;;;;;13.03;9.67;;;;;;;;;;5053090;28;20410;-68
2022/07/24 06:49:43;;;;;;;10.93;9.93;;;;;;;;;;5053189;28;20416;-69
2022/07/24 06:52:09;;;;;;;10.33;9.60;;;;;;;;;;5053118;28;20962;-68
2022/07/24 06:54:35;;;;;;;10.17;9.47;;;;;;;;;;5052942;28;20803;-68
2022/07/24 06:57:01;;;;;;;10.00;9.40;;;;;;;;;;5052816;28;20470;-68
2022/07/24 06:59:27;;;;;;;9.37;8.83;;;;;;;;;;5052853;28;20409;-69
2022/07/24 07:01:53;;;;;;;11.60;10.37;;;;;;;;;;5052932;28;20942;-68
2022/07/24 07:04:18;;;;;;;10.33;9.43;;;;;;;;;;5053005;28;20435;-68
2022/07/24 07:06:44;;;;;;;11.23;10.20;;;;;;;;;;5052932;28;20406;-68
2022/07/24 07:09:11;;;;;;;9.90;9.13;;;;;;;;;;5052882;28;20928;-67
2022/07/24 07:11:37;;;;;;;9.83;8.83;;;;;;;;;;5052903;28;20463;-67
2022/07/24 07:14:03;;;;;;;9.80;9.20;;;;;;;;;;5052921;28;20417;-67
2022/07/24 07:16:29;;;;;;;10.97;10.00;;;;;;;;;;5056500;28;21034;-66
2022/07/24 07:18:55;;;;;;;12.90;9.40;;;;;;;;;;5056666;28;20411;-66
2022/07/24 07:21:21;;;;;;;10.47;8.97;;;;;;;;;;5056567;28;20417;-67
2022/07/24 07:23:47;;;;;;;11.60;9.30;;;;;;;;;;5056511;28;20480;-68
2022/07/24 07:26:13;;;;;;;11.03;10.30;;;;;;;;;;5056453;28;20421;-68
2022/07/24 07:28:39;;;;;;;10.37;9.53;;;;;;;;;;5056489;28;20410;-68
2022/07/24 07:31:05;;;;;;;11.77;10.67;;;;;;;;;;5056273;28;20418;-67
2022/07/24 07:33:31;;;;;;;9.83;9.30;;;;;;;;;;5056344;28;20404;-67
2022/07/24 07:35:57;;;;;;;46.53;37.47;;;;;;;;;;5056153;28;20473;-68
2022/07/24 07:38:23;;;;;;;10.97;8.93;;;;;;;;;;5056179;28;20415;-68
2022/07/24 07:40:49;;;;;;;10.20;9.30;;;;;;;;;;5056138;28;20487;-68
2022/07/24 07:43:15;;;;;;;10.70;9.60;;;;;;;;;;5056081;28;20472;-69
2022/07/24 07:45:41;;;;;;;9.33;8.43;;;;;;;;;;5056003;28;20482;-68
2022/07/24 07:48:07;;;;;;;9.50;8.70;;;;;;;;;;5056109;28;20735;-68
2022/07/24 07:50:33;;;;;;;9.50;8.80;;;;;;;;;;5056435;28;20881;-68
2022/07/24 07:52:59;;;;;;;9.70;8.90;;;;;;;;;;5056023;28;20415;-68
2022/07/24 07:55:26;;;;;;;8.90;8.30;;;;;;;;;;5055953;28;20524;-67
2022/07/24 07:57:52;;;;;;;9.03;8.33;;;;;;;;;;5054565;28;20952;-68
2022/07/24 08:00:19;;;;;;;8.93;8.33;;;;;;;;;;5055821;28;20408;-68
2022/07/24 08:02:45;;;;;;;8.63;7.93;;;;;;;;;;5055946;28;20402;-68
2022/07/24 08:05:11;;;;;;;9.37;8.67;;;;;;;;;;5055807;28;20895;-68
2022/07/24 08:07:37;;;;;;;8.30;7.80;;;;;;;;;;5055623;28;20416;-68
2022/07/24 08:10:04;;;;;;;8.40;7.80;;;;;;;;;;5055685;28;20414;-68
2022/07/24 08:12:30;;;;;;;11.37;7.57;;;;;;;;;;5055640;28;20407;-68
2022/07/24 08:14:56;;;;;;;7.33;6.93;;;;;;;;;;5055531;28;20605;-68
2022/07/24 08:17:22;;;;;;;7.90;7.30;;;;;;;;;;5055510;28;20553;-68
2022/07/24 08:19:48;;;;;;;8.23;7.63;;;;;;;;;;5055679;28;20435;-69
2022/07/24 08:22:14;;;;;;;7.43;7.03;;;;;;;;;;5054757;28;20419;-68
2022/07/24 08:24:40;;;;;;;15.20;7.77;;;;;;;;;;5051281;28;20822;-68
2022/07/24 08:27:06;;;;;;;8.70;8.20;;;;;;;;;;5053468;28;20521;-68
2022/07/24 08:29:32;;;;;;;9.13;8.40;;;;;;;;;;5053982;28;20418;-68
2022/07/24 08:31:58;;;;;;;8.57;7.93;;;;;;;;;;5053925;28;20421;-69
2022/07/24 08:34:24;;;;;;;7.77;7.20;;;;;;;;;;5053829;28;20509;-68
2022/07/24 08:36:50;;;;;;;8.40;7.80;;;;;;;;;;5053726;28;20474;-68
2022/07/24 08:39:16;;;;;;;8.63;7.67;;;;;;;;;;5053670;28;20414;-67
2022/07/24 08:41:43;;;;;;;8.17;7.70;;;;;;;;;;5053815;28;20403;-69
2022/07/24 08:44:10;;;;;;;7.83;7.10;;;;;;;;;;5053780;28;20422;-68
2022/07/24 08:46:40;;;;;;;8.10;7.57;;;;;;;;;;5053522;28;20415;-67
2022/07/24 08:49:11;;;;;;;9.13;8.47;;;;;;;;;;5053590;28;20452;-68
2022/07/24 08:51:38;;;;;;;8.00;7.40;;;;;;;;;;5053553;28;20405;-68
2022/07/24 08:54:04;;;;;;;8.13;7.47;;;;;;;;;;5053499;28;20793;-69
2022/07/24 08:56:33;;;;;;;8.13;7.57;;;;;;;;;;5053379;28;20469;-68
2022/07/24 08:58:59;;;;;;;7.47;6.97;;;;;;;;;;5053640;28;20450;-68
2022/07/24 09:01:25;;;;;;;8.30;7.30;;;;;;;;;;5052129;28;20910;-67
2022/07/24 09:03:51;;;;;;;8.40;7.80;;;;;;;;;;5053423;28;20416;-67
2022/07/24 09:06:17;;;;;;;7.50;7.10;;;;;;;;;;5053100;28;20936;-68
2022/07/24 09:08:43;;;;;;;9.60;6.53;;;;;;;;;;5051939;28;20701;-69
2022/07/24 09:11:10;;;;;;;7.70;6.97;;;;;;;;;;5053254;28;20403;-70
2022/07/24 09:16:23;;;;;;;7.00;6.50;;;;;;;;;;5034195;28;20478;-67
2022/07/24 09:19:03;;;;;;;7.90;7.30;;;;;;;;;;5034407;28;20416;-68
2022/07/24 09:21:32;;;;;;;7.60;7.20;;;;;;;;;;5034519;28;20491;-68
2022/07/24 09:24:02;;;;;;;7.47;6.83;;;;;;;;;;5034297;28;20515;-67
2022/07/24 09:26:43;;;;;;;8.17;7.37;;;;;;;;;;5033068;28;20515;-67
2022/07/24 09:29:11;;;;;;;7.37;6.77;;;;;;;;;;5034555;28;20414;-68
2022/07/24 09:31:51;;;;;;;7.03;6.57;;;;;;;;;;5034443;28;20458;-67
2022/07/24 09:34:17;;;;;;;10.80;6.40;;;;;;;;;;5034457;28;20416;-67
2022/07/24 09:36:55;;;;;;;6.80;6.40;;;;;;;;;;5034448;28;20463;-69
2022/07/24 09:39:21;;;;;;;6.90;6.50;;;;;;;;;;5050590;28;20498;-67
2022/07/24 09:41:54;;;;;;;6.47;6.17;;;;;;;;;;5051426;28;20483;-69
2022/07/24 09:44:20;;;;;;;7.83;7.07;;;;;;;;;;5049903;28;20462;-69
2022/07/24 09:46:57;;;;;;;7.30;6.67;;;;;;;;;;5051214;28;20419;-70
2022/07/24 09:49:23;;;;;;;6.93;6.27;;;;;;;;;;5051326;28;20419;-69
2022/07/24 09:52:09;;;;;;;6.63;6.00;;;;;;;;;;5051171;28;20481;-68
2022/07/24 09:54:39;;;;;;;6.97;6.47;;;;;;;;;;5051778;28;20423;-70
2022/07/24 09:57:18;;;;;;;7.17;6.57;;;;;;;;;;5053693;28;20463;-69
2022/07/24 09:59:48;;;;;;;6.80;6.30;;;;;;;;;;5053714;28;20439;-70
2022/07/24 10:02:14;;;;;;;11.60;6.97;;;;;;;;;;5053584;28;20684;-70
2022/07/24 10:04:42;;;;;;;7.70;6.83;;;;;;;;;;5052276;28;20953;-70
2022/07/24 10:07:10;;;;;;;7.43;6.30;;;;;;;;;;5049133;28;20767;-71
2022/07/24 10:09:36;;;;;;;6.83;6.53;;;;;;;;;;5050748;28;20441;-70
2022/07/24 10:12:04;;;;;;;6.57;6.20;;;;;;;;;;5051361;28;20499;-70
2022/07/24 10:14:30;;;;;;;6.70;6.20;;;;;;;;;;5053469;28;20419;-68
2022/07/24 10:17:06;;;;;;;6.60;6.00;;;;;;;;;;5053391;28;20562;-71
2022/07/24 10:19:45;;;;;;;6.30;6.00;;;;;;;;;;5052141;28;20411;-68
2022/07/24 10:22:21;;;;;;;5.77;5.57;;;;;;;;;;5053284;28;20411;-69
2022/07/24 10:24:47;;;;;;;7.40;6.90;;;;;;;;;;5053273;28;20414;-72
2022/07/24 10:27:23;;;;;;;6.80;6.40;;;;;;;;;;5053247;28;20407;-69
2022/07/24 10:29:49;;;;;;;6.27;5.97;;;;;;;;;;5052145;28;20522;-69
2022/07/24 10:32:15;;;;;;;7.70;5.80;;;;;;;;;;5053294;28;20404;-68
2022/07/24 10:34:44;;;;;;;6.00;5.60;;;;;;;;;;5053203;28;20403;-73
2022/07/24 10:37:13;;;;;;;6.57;6.07;;;;;;;;;;5052982;28;20467;-69
2022/07/24 10:39:48;;;;;;;7.00;6.40;;;;;;;;;;5053126;28;20418;-69
2022/07/24 10:42:14;;;;;;;6.33;6.13;;;;;;;;;;5052978;28;20441;-68
2022/07/24 10:44:40;;;;;;;6.87;6.47;;;;;;;;;;5053156;28;20404;-69
2022/07/24 10:47:07;;;;;;;9.03;6.80;;;;;;;;;;5053092;28;20619;-70
2022/07/24 10:49:36;;;;;;;6.37;6.07;;;;;;;;;;5055618;28;20399;-69
2022/07/24 10:52:02;;;;;;;6.07;5.83;;;;;;;;;;5057189;28;20767;-69
2022/07/24 10:54:28;;;;;;;7.70;7.07;;;;;;;;;;5055779;28;20419;-69
2022/07/24 10:56:54;;;;;;;5.90;5.70;;;;;;;;;;5056964;28;20467;-68
2022/07/24 10:59:37;;;;;;;6.77;6.10;;;;;;;;;;5056826;28;20467;-68
2022/07/24 11:02:26;;;;;;;6.20;5.70;;;;;;;;;;5056878;28;20472;-68
2022/07/24 11:05:11;;;;;;;5.53;5.43;;;;;;;;;;5053880;28;20423;-68
2022/07/24 11:07:37;;;;;;;6.37;6.07;;;;;;;;;;5056750;28;20399;-69
2022/07/24 11:10:07;;;;;;;7.07;6.43;;;;;;;;;;5056705;28;20406;-71
2022/07/24 11:12:33;;;;;;;7.13;6.83;;;;;;;;;;5056699;28;20905;-71
2022/07/24 11:17:45;;;;;;;6.93;6.43;;;;;;;;;;5056601;28;20544;-69
2022/07/24 11:20:21;;;;;;;6.10;5.87;;;;;;;;;;5056515;28;20406;-71
2022/07/24 11:22:49;;;;;;;6.97;6.47;;;;;;;;;;5056499;28;20460;-69
2022/07/24 11:25:16;;;;;;;6.53;6.23;;;;;;;;;;5056870;28;20399;-69
2022/07/24 11:27:44;;;;;;;6.20;5.80;;;;;;;;;;5056518;28;20403;-67
2022/07/24 11:30:11;;;;;;;6.57;6.13;;;;;;;;;;5056469;28;20432;-68
2022/07/24 11:32:38;;;;;;;6.30;6.10;;;;;;;;;;5056384;28;20472;-72
2022/07/24 11:35:06;;;;;;;7.50;6.20;;;;;;;;;;5056329;28;20478;-70
2022/07/24 11:37:32;;;;;;;6.53;6.13;;;;;;;;;;5056307;28;20507;-67
2022/07/24 11:39:58;;;;;;;7.00;6.53;;;;;;;;;;5056281;28;20414;-73
2022/07/24 11:42:24;;;;;;;5.93;5.73;;;;;;;;;;5056297;28;20407;-69
2022/07/24 11:44:50;;;;;;;7.50;6.90;;;;;;;;;;5056178;28;20518;-70
2022/07/24 11:47:18;;;;;;;6.37;5.73;;;;;;;;;;5056168;28;20418;-69
2022/07/24 11:49:45;;;;;;;6.00;5.80;;;;;;;;;;5056136;28;20437;-70
2022/07/24 11:52:18;;;;;;;6.33;6.03;;;;;;;;;;5056013;28;20407;-70
2022/07/24 11:54:44;;;;;;;5.93;5.73;;;;;;;;;;5056107;28;20502;-68
2022/07/24 11:57:18;;;;;;;6.23;5.93;;;;;;;;;;5055921;28;20467;-69
2022/07/24 11:59:44;;;;;;;8.70;5.67;;;;;;;;;;5055587;28;20944;-69
2022/07/24 12:02:11;;;;;;;6.43;6.03;;;;;;;;;;5055474;28;20395;-68
2022/07/24 12:04:41;;;;;;;6.47;5.80;;;;;;;;;;5056072;28;20465;-69
2022/07/24 12:07:08;;;;;;;6.80;6.30;;;;;;;;;;5055861;28;20403;-71
2022/07/24 12:09:44;;;;;;;7.13;6.83;;;;;;;;;;5055756;28;20422;-69
2022/07/24 12:12:18;;;;;;;6.40;6.00;;;;;;;;;;5054464;28;20906;-71
2022/07/24 12:14:44;;;;;;;5.80;5.60;;;;;;;;;;5055477;28;20462;-69
2022/07/24 12:17:10;;;;;;;5.90;5.60;;;;;;;;;;5054241;28;20486;-72
2022/07/24 12:19:36;;;;;;;6.70;6.40;;;;;;;;;;5055624;28;20403;-70
2022/07/24 12:22:02;;;;;;;6.97;6.10;;;;;;;;;;5055555;28;20640;-74
2022/07/24 12:24:31;;;;;;;6.23;5.93;;;;;;;;;;5055372;28;20184;-75
2022/07/24 12:26:58;;;;;;;5.37;5.17;;;;;;;;;;5054147;28;20461;-73
2022/07/24 12:29:25;;;;;;;6.30;5.73;;;;;;;;;;5055297;28;20415;-72
2022/07/24 12:32:13;;;;;;;5.40;5.10;;;;;;;;;;5055242;28;20775;-73
2022/07/24 12:34:42;;;;;;;6.23;5.70;;;;;;;;;;5055546;28;20418;-75
2022/07/24 12:37:16;;;;;;;5.43;5.23;;;;;;;;;;5055053;28;20463;-73
2022/07/24 12:39:49;;;;;;;5.27;5.07;;;;;;;;;;5055130;28;20412;-74
2022/07/24 12:42:15;;;;;;;5.97;5.50;;;;;;;;;;5053733;28;20406;-73
2022/07/24 12:44:43;;;;;;;4.97;4.87;;;;;;;;;;5055008;28;20400;-72
2022/07/24 12:47:09;;;;;;;6.23;5.93;;;;;;;;;;5055000;28;20399;-70
2022/07/24 12:49:42;;;;;;;5.60;5.40;;;;;;;;;;5054938;28;20391;-70
2022/07/24 12:52:19;;;;;;;5.70;5.50;;;;;;;;;;5054874;28;20418;-69
2022/07/24 12:54:46;;;;;;;5.13;4.93;;;;;;;;;;5054751;28;20410;-71
2022/07/24 12:57:13;;;;;;;5.80;5.47;;;;;;;;;;5054657;28;20470;-71
2022/07/24 12:59:39;;;;;;;5.23;5.13;;;;;;;;;;5054815;28;20412;-73
2022/07/24 13:02:06;;;;;;;4.80;4.60;;;;;;;;;;5054568;28;20403;-72
2022/07/24 13:04:33;;;;;;;5.10;5.00;;;;;;;;;;5054626;28;20442;-70
2022/07/24 13:07:00;;;;;;;5.20;5.00;;;;;;;;;;5054481;28;20410;-72
2022/07/24 13:09:27;;;;;;;5.53;5.10;;;;;;;;;;5054526;28;20952;-70
2022/07/24 13:11:57;;;;;;;5.90;5.57;;;;;;;;;;5054558;28;20411;-70
2022/07/24 13:14:24;;;;;;;5.00;4.90;;;;;;;;;;5054315;28;20474;-77
2022/07/24 13:16:51;;;;;;;5.40;5.20;;;;;;;;;;5054365;28;20847;-76
2022/07/24 13:19:18;;;;;;;5.63;5.40;;;;;;;;;;5054378;28;20403;-72
2022/07/24 13:21:45;;;;;;;12.70;11.77;;;;;;;;;;5053019;28;20451;-73
2022/07/24 13:24:12;;;;;;;5.10;4.90;;;;;;;;;;5054226;28;20466;-71
2022/07/24 13:26:38;;;;;;;5.33;5.00;;;;;;;;;;5054388;28;20407;-73
2022/07/24 13:29:05;;;;;;;5.40;5.20;;;;;;;;;;5054288;28;20456;-75
2022/07/24 13:31:31;;;;;;;5.80;5.50;;;;;;;;;;5054230;28;20407;-73
2022/07/24 13:33:57;;;;;;;5.33;5.00;;;;;;;;;;5054147;28;20894;-73
2022/07/24 13:36:23;;;;;;;6.00;5.70;;;;;;;;;;5052680;28;20486;-74
2022/07/24 13:38:49;;;;;;;4.93;4.83;;;;;;;;;;5053965;28;20557;-72
2022/07/24 13:41:18;;;;;;;5.30;5.17;;;;;;;;;;5053847;28;20411;-72
2022/07/24 13:43:44;;;;;;;5.27;5.17;;;;;;;;;;5053792;28;20905;-75
2022/07/24 13:46:10;;;;;;;5.70;5.50;;;;;;;;;;5053843;28;20414;-75
2022/07/24 13:48:36;;;;;;;5.17;4.97;;;;;;;;;;5053728;28;20404;-73
2022/07/24 13:51:02;;;;;;;4.33;4.23;;;;;;;;;;5053834;28;20498;-74
2022/07/24 13:53:28;;;;;;;5.50;5.30;;;;;;;;;;5053843;28;20902;-72
2022/07/24 13:55:54;;;;;;;5.30;5.10;;;;;;;;;;5052824;28;20458;-73
2022/07/24 13:58:20;;;;;;;4.93;4.80;;;;;;;;;;5053668;28;20248;-73
2022/07/24 14:00:46;;;;;;;5.00;4.70;;;;;;;;;;5053689;28;20173;-73
2022/07/24 14:03:12;;;;;;;5.47;5.17;;;;;;;;;;5053524;28;20415;-72
2022/07/24 14:05:38;;;;;;;5.53;5.13;;;;;;;;;;5053251;28;20403;-72
2022/07/24 14:08:04;;;;;;;5.37;5.17;;;;;;;;;;5053671;28;20423;-72
2022/07/24 14:10:30;;;;;;;6.10;5.60;;;;;;;;;;5053503;28;20415;-73
2022/07/24 14:12:56;;;;;;;5.53;5.17;;;;;;;;;;5053679;28;20443;-74
2022/07/24 14:15:22;;;;;;;4.97;4.67;;;;;;;;;;5053287;28;20888;-72
2022/07/24 14:17:48;;;;;;;5.20;5.00;;;;;;;;;;5053203;28;20524;-72
2022/07/24 14:20:14;;;;;;;5.00;4.80;;;;;;;;;;5053316;28;20737;-73
2022/07/24 14:22:40;;;;;;;4.73;4.63;;;;;;;;;;5053274;28;20480;-75
2022/07/24 14:25:07;;;;;;;4.90;4.70;;;;;;;;;;5052797;28;20456;-72
2022/07/24 14:27:34;;;;;;;4.90;4.70;;;;;;;;;;5052016;28;20777;-73
2022/07/24 14:30:00;;;;;;;5.17;5.07;;;;;;;;;;5053177;28;20399;-72
2022/07/24 14:32:26;;;;;;;5.20;4.97;;;;;;;;;;5053442;28;20494;-75
2022/07/24 14:34:52;;;;;;;4.90;4.60;;;;;;;;;;5053186;28;20431;-75